Time;durP1;ratioP1;P1;durP2;ratioP2;P2;SDS_P1;SDS_P2;PMS_P1;PMS_P2;Temp;Humidity;BMP_temperature;BMP_pressure;BME280_temperature;BME280_humidity;BME280_pressure;Samples;Min_cycle;Max_cycle;Signal;HPM_P1;HPM_P2
2023/06/28 00:01:07;;;;;;;5.93;1.43;;;17.70;99.90;;;;;;5056744;28;20164;-90
2023/06/28 00:03:32;;;;;;;3.87;1.33;;;17.60;99.90;;;;;;5055767;28;20258;-90
2023/06/28 00:05:58;;;;;;;5.33;1.50;;;17.60;99.90;;;;;;5055215;28;20564;-90
2023/06/28 00:08:24;;;;;;;4.57;1.40;;;17.60;99.90;;;;;;5056873;28;20262;-90
2023/06/28 00:10:50;;;;;;;9.33;1.80;;;18.20;99.90;;;;;;5057497;28;20211;-90
2023/06/28 00:13:17;;;;;;;6.40;1.90;;;17.70;99.90;;;;;;5055564;28;20223;-90
2023/06/28 00:15:42;;;;;;;5.80;1.43;;;17.60;99.90;;;;;;5056766;28;20203;-90
2023/06/28 00:18:08;;;;;;;4.97;1.33;;;17.50;99.90;;;;;;5056469;28;20238;-90
2023/06/28 00:20:34;;;;;;;2.43;0.90;;;18.00;99.90;;;;;;5058063;28;20568;-90
2023/06/28 00:23:00;;;;;;;2.33;1.33;;;17.60;99.90;;;;;;5056566;28;20183;-90
2023/06/28 00:25:26;;;;;;;4.73;1.50;;;17.50;99.90;;;;;;5057089;28;20167;-90
2023/06/28 00:27:51;;;;;;;4.20;1.70;;;18.80;99.90;;;;;;5056393;28;20198;-90
2023/06/28 00:30:17;;;;;;;3.77;1.30;;;17.50;99.90;;;;;;5057995;28;20219;-90
2023/06/28 00:32:43;;;;;;;3.13;1.40;;;17.50;99.90;;;;;;5056617;28;20253;-90
2023/06/28 00:35:08;;;;;;;4.50;1.10;;;17.40;99.90;;;;;;5056066;28;20194;-90
2023/06/28 00:37:34;;;;;;;3.80;1.20;;;17.50;99.90;;;;;;5056664;28;20214;-90
2023/06/28 00:40:00;;;;;;;6.63;1.40;;;17.30;99.90;;;;;;5056026;28;20226;-90
2023/06/28 00:42:26;;;;;;;5.00;1.30;;;17.40;99.90;;;;;;5055559;28;20230;-90
2023/06/28 00:44:51;;;;;;;2.40;1.23;;;17.30;99.90;;;;;;5056604;28;20688;-90
2023/06/28 00:47:18;;;;;;;40.43;2.40;;;17.20;99.90;;;;;;5057021;28;20633;-90
2023/06/28 00:49:45;;;;;;;5.23;1.20;;;17.10;99.90;;;;;;5055564;28;20203;-90
2023/06/28 00:52:11;;;;;;;4.80;1.57;;;17.10;99.90;;;;;;5055789;28;20179;-90
2023/06/28 00:54:37;;;;;;;31.70;1.90;;;17.10;99.90;;;;;;5055324;28;20703;-90
2023/06/28 00:57:04;;;;;;;3.50;1.50;;;17.30;1.00;;;;;;5056225;28;20274;-90
2023/06/28 00:59:30;;;;;;;4.13;1.20;;;17.00;99.90;;;;;;5057196;28;20191;-90
2023/06/28 01:01:56;;;;;;;2.77;1.30;;;17.00;99.90;;;;;;5057534;28;20183;-90
2023/06/28 01:04:21;;;;;;;6.40;1.93;;;17.00;99.90;;;;;;5054959;28;20183;-90
2023/06/28 01:06:53;;;;;;;5.00;1.23;;;17.00;1.00;;;;;;5057080;28;20175;-90
2023/06/28 01:09:20;;;;;;;4.00;1.30;;;17.30;1.00;;;;;;5055505;28;20207;-90
2023/06/28 01:11:49;;;;;;;3.73;1.43;;;16.90;1.00;;;;;;5056890;28;20679;-90
2023/06/28 01:14:15;;;;;;;2.30;1.20;;;16.90;1.00;;;;;;5054788;28;20191;-90
2023/06/28 01:16:40;;;;;;;1.97;1.07;;;16.90;1.00;;;;;;5055411;28;20202;-90
2023/06/28 01:19:13;;;;;;;3.63;1.40;;;16.80;1.00;;;;;;5055486;28;20223;-90
2023/06/28 01:21:42;;;;;;;3.90;1.60;;;16.70;1.00;;;;;;5056750;28;20711;-90
2023/06/28 01:24:11;;;;;;;5.57;1.93;;;16.70;1.00;;;;;;5056022;28;20210;-90
2023/06/28 01:26:38;;;;;;;5.17;1.40;;;16.90;1.00;;;;;;5055975;28;20179;-90
2023/06/28 01:29:05;;;;;;;2.03;1.30;;;16.60;1.00;;;;;;5056610;28;20205;-90
2023/06/28 01:31:30;;;;;;;3.03;1.00;;;16.80;1.00;;;;;;5056785;28;20180;-90
2023/06/28 01:33:56;;;;;;;3.07;1.20;;;16.40;1.00;;;;;;5055667;28;20195;-90
2023/06/28 01:36:22;;;;;;;3.77;1.13;;;16.40;1.00;;;;;;5056707;28;20176;-90
2023/06/28 01:38:48;;;;;;;2.87;1.17;;;16.60;1.00;;;;;;5056343;28;20212;-90
2023/06/28 01:41:15;;;;;;;2.67;1.20;;;16.60;1.00;;;;;;5056336;28;20294;-90
2023/06/28 01:43:41;;;;;;;6.83;1.60;;;16.10;1.00;;;;;;5056282;28;20229;-90
2023/06/28 01:46:08;;;;;;;3.60;1.20;;;16.30;1.00;;;;;;5055767;28;20175;-90
2023/06/28 01:48:33;;;;;;;3.23;1.33;;;16.10;1.00;;;;;;5056370;28;20196;-89
2023/06/28 01:51:00;;;;;;;2.30;1.03;;;16.10;1.00;;;;;;5055859;28;20190;-90
2023/06/28 01:53:25;;;;;;;4.03;1.40;;;16.50;1.00;;;;;;5056411;28;20183;-90
2023/06/28 01:55:51;;;;;;;5.13;1.23;;;16.00;1.00;;;;;;5056122;28;20180;-90
2023/06/28 01:58:17;;;;;;;5.40;1.43;;;15.90;1.00;;;;;;5057277;28;20278;-90
2023/06/28 02:00:42;;;;;;;2.00;1.40;;;16.10;1.00;;;;;;5056929;28;20176;-90
2023/06/28 02:03:08;;;;;;;3.87;1.53;;;16.40;1.00;;;;;;5055475;28;20182;-89
2023/06/28 02:05:34;;;;;;;8.63;1.70;;;15.80;1.00;;;;;;5056896;28;20167;-90
2023/06/28 02:08:01;;;;;;;2.63;1.17;;;16.70;1.00;;;;;;5054918;28;20186;-89
2023/06/28 02:10:26;;;;;;;2.47;1.23;;;15.70;1.00;;;;;;5055557;28;20183;-90
2023/06/28 02:12:52;;;;;;;4.13;1.63;;;15.60;1.00;;;;;;5053623;28;20779;-90
2023/06/28 02:15:17;;;;;;;3.53;1.90;;;15.50;1.00;;;;;;5054643;28;20180;-90
2023/06/28 02:17:43;;;;;;;5.10;1.30;;;15.60;1.00;;;;;;5056420;28;20214;-90
2023/06/28 02:20:12;;;;;;;4.50;1.50;;;15.50;1.00;;;;;;5055030;28;20245;-90
2023/06/28 02:22:39;;;;;;;6.23;1.27;;;15.50;1.00;;;;;;5055071;28;20211;-90
2023/06/28 02:25:05;;;;;;;4.17;1.43;;;15.50;1.00;;;;;;5056129;28;20174;-90
2023/06/28 02:27:30;;;;;;;5.97;1.60;;;15.40;1.00;;;;;;5056288;28;20180;-90
2023/06/28 02:29:56;;;;;;;3.30;1.30;;;15.70;1.00;;;;;;5056175;28;20245;-90
2023/06/28 02:32:22;;;;;;;7.53;1.70;;;15.40;1.00;;;;;;5054447;28;20704;-90
2023/06/28 02:34:48;;;;;;;5.60;1.40;;;15.40;1.00;;;;;;5056144;28;20657;-90
2023/06/28 02:37:13;;;;;;;1.73;1.40;;;15.90;1.00;;;;;;5054742;28;20545;-90
2023/06/28 02:39:39;;;;;;;3.83;1.47;;;16.10;1.00;;;;;;5056130;28;20192;-90
2023/06/28 02:42:07;;;;;;;3.17;1.37;;;15.30;1.00;;;;;;5056049;28;20262;-90
2023/06/28 02:44:36;;;;;;;6.90;1.87;;;15.30;1.00;;;;;;5055241;28;20175;-90
2023/06/28 02:47:02;;;;;;;4.00;1.63;;;15.30;1.00;;;;;;5054931;28;20179;-90
2023/06/28 02:49:27;;;;;;;2.63;1.37;;;15.20;1.00;;;;;;5056331;28;20192;-90
2023/06/28 02:51:53;;;;;;;27.93;3.20;;;15.70;1.00;;;;;;5054797;28;20168;-90
2023/06/28 02:54:19;;;;;;;7.50;1.47;;;15.10;1.00;;;;;;5055535;28;20164;-90
2023/06/28 02:56:44;;;;;;;7.60;1.43;;;15.10;1.00;;;;;;5054730;28;20583;-90
2023/06/28 02:59:10;;;;;;;5.83;1.33;;;15.10;1.00;;;;;;5054473;28;20583;-90
2023/06/28 03:01:36;;;;;;;3.73;1.27;;;15.10;1.00;;;;;;5054261;28;20182;-90
2023/06/28 03:04:02;;;;;;;4.60;1.37;;;15.10;1.00;;;;;;5054493;28;20237;-90
2023/06/28 03:06:27;;;;;;;4.67;1.50;;;15.00;1.00;;;;;;5055459;28;20167;-90
2023/06/28 03:08:53;;;;;;;2.27;1.40;;;15.40;1.00;;;;;;5054078;28;20200;-90
2023/06/28 03:11:18;;;;;;;4.10;1.67;;;15.20;1.00;;;;;;5054495;28;20175;-90
2023/06/28 03:13:44;;;;;;;4.43;1.20;;;15.00;1.00;;;;;;5055648;28;20194;-90
2023/06/28 03:16:09;;;;;;;4.60;1.50;;;15.10;1.00;;;;;;5055356;28;20176;-90
2023/06/28 03:18:36;;;;;;;3.77;1.20;;;15.10;1.00;;;;;;5053828;28;20684;-90
2023/06/28 03:21:01;;;;;;;2.83;1.17;;;15.10;1.00;;;;;;5054867;28;20171;-90
2023/06/28 03:23:27;;;;;;;3.97;1.60;;;15.10;1.00;;;;;;5056116;28;20172;-90
2023/06/28 03:25:53;;;;;;;3.20;1.30;;;15.10;14.10;;;;;;5055733;28;20180;-90
2023/06/28 03:28:18;;;;;;;2.90;1.57;;;15.10;12.70;;;;;;5058000;28;20256;-90
2023/06/28 03:30:44;;;;;;;2.17;1.20;;;15.20;4.00;;;;;;5058967;28;20179;-90
2023/06/28 03:33:10;;;;;;;3.57;1.73;;;15.20;17.30;;;;;;5058725;28;20203;-90
2023/06/28 03:35:35;;;;;;;2.93;1.40;;;15.30;13.20;;;;;;5059672;28;20182;-90
2023/06/28 03:38:01;;;;;;;6.13;1.90;;;15.30;23.30;;;;;;5059666;28;20692;-90
2023/06/28 03:40:28;;;;;;;3.77;1.30;;;15.10;28.30;;;;;;5060666;28;20243;-90
2023/06/28 03:42:54;;;;;;;3.90;1.70;;;15.20;27.80;;;;;;5059624;28;20174;-90
2023/06/28 03:45:19;;;;;;;4.33;1.70;;;15.10;37.60;;;;;;5059376;28;20247;-90
2023/06/28 03:47:45;;;;;;;4.07;2.00;;;15.10;34.30;;;;;;5060199;28;20653;-90
2023/06/28 03:50:11;;;;;;;2.00;1.50;;;15.20;35.60;;;;;;5069096;28;20184;-90
2023/06/28 03:52:37;;;;;;;6.97;1.57;;;15.30;39.50;;;;;;5068361;28;20237;-90
2023/06/28 03:55:03;;;;;;;3.13;1.60;;;15.20;51.20;;;;;;5068866;28;20242;-90
2023/06/28 03:57:29;;;;;;;2.20;1.60;;;15.20;53.40;;;;;;5067080;28;20199;-90
2023/06/28 03:59:55;;;;;;;4.63;2.00;;;15.20;60.00;;;;;;5068590;28;20249;-90
2023/06/28 04:02:20;;;;;;;3.80;1.80;;;15.30;66.40;;;;;;5062221;28;20167;-90
2023/06/28 04:04:46;;;;;;;3.57;1.57;;;15.20;83.70;;;;;;5058515;28;20229;-89
2023/06/28 04:07:12;;;;;;;5.07;2.07;;;15.30;81.00;;;;;;5057870;28;20240;-90
2023/06/28 04:09:38;;;;;;;7.03;1.77;;;15.30;82.90;;;;;;5057782;28;20203;-90
2023/06/28 04:12:04;;;;;;;3.57;1.67;;;15.20;92.50;;;;;;5059231;28;20174;-90
2023/06/28 04:14:30;;;;;;;4.17;1.73;;;15.30;99.90;;;;;;5058864;28;20549;-90
2023/06/28 04:16:55;;;;;;;4.43;1.80;;;15.30;99.90;;;;;;5057436;28;20180;-90
2023/06/28 04:19:21;;;;;;;5.63;1.97;;;16.40;99.90;;;;;;5057346;28;20207;-90
2023/06/28 04:21:46;;;;;;;5.23;1.90;;;15.40;99.90;;;;;;5058240;28;20183;-90
2023/06/28 04:24:12;;;;;;;6.83;1.60;;;15.50;99.90;;;;;;5057471;28;20594;-90
2023/06/28 04:26:37;;;;;;;3.67;1.60;;;15.50;99.90;;;;;;5057529;28;20186;-89
2023/06/28 04:29:03;;;;;;;4.37;1.93;;;15.60;99.90;;;;;;5059667;28;20689;-90
2023/06/28 04:31:29;;;;;;;5.83;1.73;;;15.60;99.90;;;;;;5058390;28;20646;-90
2023/06/28 04:33:57;;;;;;;5.13;1.40;;;15.80;99.90;;;;;;5057444;28;20192;-90
2023/06/28 04:36:25;;;;;;;7.43;1.87;;;15.70;99.90;;;;;;5057870;28;20194;-90
2023/06/28 04:38:52;;;;;;;4.40;2.47;;;15.80;99.90;;;;;;5058662;28;20202;-89
2023/06/28 04:41:27;;;;;;;4.10;1.77;;;15.80;99.90;;;;;;5056678;28;20230;-90
2023/06/28 04:43:57;;;;;;;3.17;2.00;;;15.90;99.90;;;;;;5057636;28;20626;-90
2023/06/28 04:46:26;;;;;;;2.33;1.90;;;15.90;99.90;;;;;;5057602;28;20172;-90
2023/06/28 04:48:53;;;;;;;4.90;2.17;;;16.00;99.90;;;;;;5058645;28;20222;-89
2023/06/28 04:51:20;;;;;;;4.03;2.00;;;15.90;99.90;;;;;;5058606;28;20183;-90
2023/06/28 04:53:46;;;;;;;5.33;2.13;;;16.10;99.90;;;;;;5057582;28;20186;-90
2023/06/28 04:56:12;;;;;;;4.33;1.60;;;16.00;99.90;;;;;;5052495;28;20188;-89
2023/06/28 04:58:37;;;;;;;5.13;1.80;;;16.10;99.90;;;;;;5044382;28;20215;-90
2023/06/28 05:01:05;;;;;;;5.00;2.07;;;16.10;99.90;;;;;;5038794;28;20236;-90
2023/06/28 05:03:31;;;;;;;4.83;2.00;;;16.10;99.90;;;;;;5061369;28;20183;-89
2023/06/28 05:05:57;;;;;;;3.97;2.30;;;16.10;99.90;;;;;;5041342;28;20180;-90
2023/06/28 05:08:23;;;;;;;5.70;2.13;;;16.50;99.90;;;;;;5058689;28;20191;-90
2023/06/28 05:10:48;;;;;;;5.33;2.57;;;16.20;99.90;;;;;;5058191;28;20183;-90
2023/06/28 05:13:14;;;;;;;7.27;2.47;;;16.20;99.90;;;;;;5057814;28;20175;-90
2023/06/28 05:15:40;;;;;;;5.50;2.10;;;16.40;99.90;;;;;;5057893;28;20183;-90
2023/06/28 05:18:05;;;;;;;5.47;2.10;;;16.60;99.90;;;;;;5058725;28;20238;-90
2023/06/28 05:20:31;;;;;;;6.13;2.30;;;16.50;99.90;;;;;;5059157;28;20202;-89
2023/06/28 05:23:13;;;;;;;5.17;1.77;;;16.30;99.90;;;;;;5057536;28;20233;-90
2023/06/28 05:25:40;;;;;;;4.53;1.87;;;16.20;99.90;;;;;;5057274;28;20289;-89
2023/06/28 05:28:06;;;;;;;3.97;1.97;;;16.30;99.90;;;;;;5058258;28;20172;-90
2023/06/28 05:30:32;;;;;;;3.03;1.80;;;16.40;99.90;;;;;;5056468;28;20232;-90
2023/06/28 05:33:01;;;;;;;7.20;2.00;;;16.30;99.90;;;;;;5057666;28;20203;-90
2023/06/28 05:35:27;;;;;;;4.37;1.90;;;16.40;99.90;;;;;;5056224;28;20622;-90
2023/06/28 05:37:53;;;;;;;5.53;2.03;;;16.40;99.90;;;;;;5055070;28;20245;-90
2023/06/28 05:40:18;;;;;;;4.50;1.90;;;16.40;99.90;;;;;;5057126;28;20187;-90
2023/06/28 05:42:44;;;;;;;3.63;2.00;;;17.90;99.90;;;;;;5058099;28;20167;-90
2023/06/28 05:45:10;;;;;;;4.73;2.00;;;16.50;99.90;;;;;;5057610;28;20171;-90
2023/06/28 05:47:35;;;;;;;4.80;2.30;;;16.40;99.90;;;;;;5055909;28;20645;-90
2023/06/28 05:50:01;;;;;;;4.83;2.10;;;16.40;99.90;;;;;;5055399;28;20195;-90
2023/06/28 05:52:27;;;;;;;4.30;1.80;;;16.40;99.90;;;;;;5057159;28;20179;-89
2023/06/28 05:54:52;;;;;;;12.67;2.50;;;17.80;99.90;;;;;;5057746;28;20184;-89
2023/06/28 05:57:19;;;;;;;12.70;2.27;;;16.50;99.90;;;;;;5056076;28;20186;-90
2023/06/28 05:59:44;;;;;;;2.50;1.30;;;16.40;99.90;;;;;;5056817;28;20199;-90
2023/06/28 06:02:10;;;;;;;4.60;1.90;;;16.40;99.90;;;;;;5057677;28;20221;-91
2023/06/28 06:04:35;;;;;;;7.10;1.77;;;17.50;66.70;;;;;;5058106;28;20696;-91
2023/06/28 06:07:01;;;;;;;5.50;1.80;;;16.40;11.20;;;;;;5058565;28;20711;-92
2023/06/28 06:09:28;;;;;;;2.07;1.43;;;16.40;1.00;;;;;;5056982;28;20195;-91
2023/06/28 06:11:53;;;;;;;3.30;1.40;;;16.50;1.00;;;;;;5055690;28;20183;-91
2023/06/28 06:14:19;;;;;;;4.60;1.80;;;17.20;1.00;;;;;;5058592;28;20179;-92
2023/06/28 06:16:45;;;;;;;6.77;1.73;;;16.50;1.00;;;;;;5048366;28;20172;-91
2023/06/28 06:19:10;;;;;;;4.10;1.97;;;16.60;1.00;;;;;;5036383;28;20223;-91
2023/06/28 06:21:36;;;;;;;3.17;1.70;;;16.50;1.00;;;;;;5037853;28;20198;-92
2023/06/28 06:24:07;;;;;;;4.67;1.43;;;16.60;1.00;;;;;;5035971;28;20188;-91
2023/06/28 06:26:33;;;;;;;6.97;1.50;;;16.60;1.00;;;;;;5037393;28;20231;-91
2023/06/28 06:28:58;;;;;;;3.03;1.67;;;16.60;1.00;;;;;;5045902;28;20192;-91
2023/06/28 06:31:24;;;;;;;4.50;1.40;;;16.50;1.00;;;;;;5056621;28;20496;-91
2023/06/28 06:33:50;;;;;;;5.13;2.07;;;16.40;1.00;;;;;;5055581;28;20649;-91
2023/06/28 06:36:15;;;;;;;4.17;1.63;;;16.50;1.00;;;;;;5055143;28;20215;-91
2023/06/28 06:38:41;;;;;;;5.40;1.50;;;16.50;1.00;;;;;;5056975;28;20644;-92
2023/06/28 06:41:06;;;;;;;4.10;1.97;;;16.60;1.00;;;;;;5051500;28;20175;-91
2023/06/28 06:43:32;;;;;;;5.07;1.60;;;17.20;1.00;;;;;;5052321;28;20282;-91
2023/06/28 06:45:57;;;;;;;2.57;1.20;;;16.60;1.00;;;;;;5050704;28;20195;-91
2023/06/28 06:48:23;;;;;;;3.43;1.50;;;16.60;1.00;;;;;;5053998;28;20203;-92
2023/06/28 06:50:49;;;;;;;6.57;1.70;;;16.50;27.20;;;;;;5055907;28;20247;-93
2023/06/28 06:53:15;;;;;;;8.93;1.87;;;16.80;79.00;;;;;;5055456;28;20210;-92
2023/06/28 06:55:40;;;;;;;5.37;1.60;;;16.30;1.00;;;;;;5053296;28;20277;-92
2023/06/28 06:58:06;;;;;;;4.97;1.63;;;16.60;1.00;;;;;;5054384;28;20207;-92
2023/06/28 07:00:31;;;;;;;3.20;1.43;;;16.60;1.00;;;;;;5057352;28;20182;-92
2023/06/28 07:02:57;;;;;;;5.53;2.00;;;17.10;1.00;;;;;;5055542;28;20197;-92
2023/06/28 07:05:22;;;;;;;6.07;1.70;;;16.70;5.00;;;;;;5057896;28;20179;-93
2023/06/28 07:07:48;;;;;;;6.23;2.40;;;16.00;27.80;;;;;;5052212;28;20184;-92
2023/06/28 07:10:14;;;;;;;4.40;1.77;;;16.20;15.00;;;;;;5052224;28;20211;-92
2023/06/28 07:12:40;;;;;;;8.03;2.10;;;16.90;4.90;;;;;;5057694;28;20183;-92
2023/06/28 07:15:06;;;;;;;3.13;1.60;;;16.90;23.00;;;;;;5055894;28;20182;-92
2023/06/28 07:17:31;;;;;;;3.93;1.70;;;16.90;59.20;;;;;;5056217;28;20207;-92
2023/06/28 07:19:57;;;;;;;4.33;1.73;;;16.90;15.90;;;;;;5056339;28;20277;-92
2023/06/28 07:22:22;;;;;;;5.80;1.90;;;17.00;14.50;;;;;;5056331;28;20190;-92
2023/06/28 07:24:48;;;;;;;3.47;1.50;;;17.00;27.60;;;;;;5056240;28;20179;-91
2023/06/28 07:27:13;;;;;;;4.80;1.40;;;17.20;1.00;;;;;;5056210;28;20262;-92
2023/06/28 07:29:39;;;;;;;5.83;1.73;;;17.10;1.00;;;;;;5055681;28;20191;-93
2023/06/28 07:32:05;;;;;;;3.60;1.60;;;17.10;1.00;;;;;;5056358;28;20180;-92
2023/06/28 07:34:30;;;;;;;4.97;1.87;;;17.20;1.00;;;;;;5055490;28;20206;-93
2023/06/28 07:36:56;;;;;;;5.00;2.07;;;17.20;1.00;;;;;;5054818;28;20195;-92
2023/06/28 07:39:22;;;;;;;4.83;1.93;;;17.20;1.00;;;;;;5055372;28;20215;-92
2023/06/28 07:41:47;;;;;;;3.00;1.50;;;17.20;1.00;;;;;;5054808;28;20549;-93
2023/06/28 07:44:13;;;;;;;6.77;1.63;;;17.60;1.00;;;;;;5056030;28;20186;-92
2023/06/28 07:46:38;;;;;;;5.30;1.73;;;17.20;1.00;;;;;;5055058;28;20180;-92
2023/06/28 07:49:04;;;;;;;4.50;1.50;;;17.50;1.00;;;;;;5055836;28;20206;-93
2023/06/28 07:51:29;;;;;;;4.40;1.63;;;17.20;1.00;;;;;;5058025;28;20547;-93
2023/06/28 07:53:55;;;;;;;2.87;1.30;;;17.20;1.00;;;;;;5056614;28;20180;-92
2023/06/28 07:56:22;;;;;;;3.00;1.40;;;18.20;1.00;;;;;;5055903;28;20259;-93
2023/06/28 07:58:48;;;;;;;3.83;1.73;;;17.40;1.00;;;;;;5055514;28;20207;-92
2023/06/28 08:01:14;;;;;;;4.83;1.80;;;17.40;1.00;;;;;;5062063;28;20180;-92
2023/06/28 08:03:40;;;;;;;2.47;1.10;;;17.50;1.00;;;;;;5062965;28;20192;-92
2023/06/28 08:06:06;;;;;;;2.07;1.20;;;17.20;1.00;;;;;;5054696;28;20180;-92
2023/06/28 08:08:32;;;;;;;4.00;1.40;;;17.40;1.00;;;;;;5054304;28;20272;-92
2023/06/28 08:10:57;;;;;;;4.33;1.57;;;17.30;1.00;;;;;;5054135;28;20176;-93
2023/06/28 08:13:23;;;;;;;4.30;1.80;;;17.50;1.00;;;;;;5057812;28;20183;-91
2023/06/28 08:15:48;;;;;;;2.93;1.40;;;17.50;1.00;;;;;;5059254;28;20199;-91
2023/06/28 08:18:16;;;;;;;3.53;1.70;;;17.60;1.00;;;;;;5058384;28;20206;-91
2023/06/28 08:20:44;;;;;;;6.90;2.10;;;18.30;1.00;;;;;;5058256;28;20263;-93
2023/06/28 08:23:10;;;;;;;4.33;1.63;;;17.50;1.00;;;;;;5058567;28;20602;-92
2023/06/28 08:25:35;;;;;;;6.37;2.10;;;17.60;1.00;;;;;;5058979;28;20180;-92
2023/06/28 08:28:01;;;;;;;7.47;2.20;;;17.70;1.00;;;;;;5059450;28;20197;-92
2023/06/28 08:30:27;;;;;;;6.50;2.07;;;17.60;1.00;;;;;;5058583;28;20282;-92
2023/06/28 08:32:53;;;;;;;6.40;2.03;;;17.70;1.00;;;;;;5058599;28;20711;-92
2023/06/28 08:35:19;;;;;;;6.27;2.03;;;17.70;1.00;;;;;;5057694;28;20526;-92
2023/06/28 08:37:44;;;;;;;6.67;1.97;;;17.80;1.00;;;;;;5037721;28;20314;-92
2023/06/28 08:40:10;;;;;;;6.97;2.70;;;18.20;1.00;;;;;;5038182;28;20192;-92
2023/06/28 08:42:40;;;;;;;5.60;2.43;;;17.70;1.00;;;;;;5039041;28;20183;-92
2023/06/28 08:45:06;;;;;;;5.77;2.10;;;17.70;1.00;;;;;;5037502;28;20497;-92
2023/06/28 08:47:32;;;;;;;6.80;2.17;;;17.70;1.00;;;;;;5038814;28;20236;-92
2023/06/28 08:49:59;;;;;;;8.43;2.30;;;17.70;1.00;;;;;;5037290;28;20210;-92
2023/06/28 08:52:27;;;;;;;5.90;2.70;;;17.80;1.00;;;;;;5039474;28;20189;-92
2023/06/28 08:54:53;;;;;;;5.33;2.17;;;17.60;1.00;;;;;;5057554;28;20179;-92
2023/06/28 08:57:20;;;;;;;5.10;2.20;;;18.60;1.00;;;;;;5059284;28;20174;-92
2023/06/28 08:59:46;;;;;;;5.87;2.27;;;18.20;1.00;;;;;;5049567;28;20192;-92
2023/06/28 09:02:17;;;;;;;5.80;2.03;;;18.40;1.00;;;;;;5047850;28;20589;-92
2023/06/28 09:04:44;;;;;;;4.73;1.93;;;18.60;1.00;;;;;;5048210;28;20186;-92
2023/06/28 09:07:13;;;;;;;6.17;2.00;;;18.20;1.00;;;;;;5049281;28;20176;-92
2023/06/28 09:09:42;;;;;;;3.70;1.73;;;17.90;1.00;;;;;;5048097;28;20692;-92
2023/06/28 09:12:09;;;;;;;6.53;2.03;;;18.00;1.00;;;;;;5042987;28;20619;-92
2023/06/28 09:14:35;;;;;;;5.83;1.80;;;17.90;1.00;;;;;;5048770;28;20188;-92
2023/06/28 09:17:01;;;;;;;3.37;1.70;;;18.00;1.00;;;;;;5046927;28;20172;-92
2023/06/28 09:19:26;;;;;;;5.27;1.63;;;18.00;1.00;;;;;;5048611;28;20207;-92
2023/06/28 09:21:52;;;;;;;5.60;1.83;;;18.00;1.00;;;;;;5046713;28;20254;-91
2023/06/28 09:24:23;;;;;;;3.90;1.77;;;18.20;1.00;;;;;;5046539;28;20259;-92
2023/06/28 09:26:48;;;;;;;4.57;1.57;;;17.90;1.00;;;;;;5042876;28;20172;-92
2023/06/28 09:29:14;;;;;;;4.13;1.77;;;18.00;1.00;;;;;;5045125;28;20213;-92
2023/06/28 09:31:42;;;;;;;4.17;2.07;;;18.10;1.00;;;;;;5049267;28;20180;-91
2023/06/28 09:34:08;;;;;;;5.63;2.07;;;18.50;1.00;;;;;;5042803;28;20253;-92
2023/06/28 09:36:37;;;;;;;4.63;1.73;;;18.50;99.90;;;;;;5047161;28;20176;-92
2023/06/28 09:39:07;;;;;;;6.80;1.70;;;18.20;1.00;;;;;;5047907;28;20894;-92
2023/06/28 09:41:41;;;;;;;6.37;2.73;;;18.20;1.00;;;;;;5042367;28;20214;-92
2023/06/28 09:44:09;;;;;;;4.27;1.83;;;18.30;1.00;;;;;;5045681;28;20675;-91
2023/06/28 09:46:35;;;;;;;4.30;1.53;;;18.30;99.90;;;;;;5044145;28;20179;-92
2023/06/28 09:49:01;;;;;;;5.10;1.73;;;18.60;1.00;;;;;;5054400;28;20227;-92
2023/06/28 09:51:27;;;;;;;4.77;1.70;;;18.50;1.00;;;;;;5049742;28;20180;-92
2023/06/28 09:53:54;;;;;;;4.87;1.60;;;19.00;1.00;;;;;;5047745;28;20203;-92
2023/06/28 09:56:21;;;;;;;3.47;1.90;;;18.60;99.90;;;;;;5046820;28;20183;-91
2023/06/28 09:58:49;;;;;;;8.53;2.00;;;19.10;99.90;;;;;;5044572;28;20246;-92
2023/06/28 10:01:15;;;;;;;5.67;2.47;;;19.30;99.90;;;;;;5044821;28;20656;-91
2023/06/28 10:03:44;;;;;;;8.77;2.13;;;19.20;99.90;;;;;;5045358;28;20222;-92
2023/06/28 10:06:10;;;;;;;3.70;1.73;;;18.70;99.90;;;;;;5056686;28;20696;-91
2023/06/28 10:08:36;;;;;;;4.77;1.90;;;18.80;1.00;;;;;;5075933;28;20195;-91
2023/06/28 10:11:10;;;;;;;5.53;2.10;;;18.90;1.00;;;;;;5070613;28;20622;-92
2023/06/28 10:13:40;;;;;;;6.97;2.20;;;19.10;99.90;;;;;;5052514;28;20240;-91
2023/06/28 10:16:17;;;;;;;8.17;2.37;;;18.70;99.90;;;;;;5057428;28;20184;-91
2023/06/28 10:18:43;;;;;;;7.40;1.90;;;18.70;99.90;;;;;;5048197;28;20211;-92
2023/06/28 10:21:09;;;;;;;5.53;2.33;;;18.70;99.90;;;;;;5041281;28;20180;-92
2023/06/28 10:23:35;;;;;;;11.87;2.37;;;18.80;99.90;;;;;;5037474;28;20180;-92
2023/06/28 10:26:05;;;;;;;7.87;2.30;;;18.70;99.90;;;;;;5050243;28;20187;-93
2023/06/28 10:28:32;;;;;;;6.33;2.30;;;18.80;1.00;;;;;;5056608;28;20203;-92
2023/06/28 10:30:58;;;;;;;8.03;2.47;;;19.00;1.00;;;;;;5056840;28;20173;-92
2023/06/28 10:33:25;;;;;;;5.53;2.50;;;18.90;1.00;;;;;;5056387;28;20575;-92
2023/06/28 10:35:52;;;;;;;7.00;2.50;;;20.10;99.90;;;;;;5056028;28;20198;-92
2023/06/28 10:38:18;;;;;;;8.33;2.47;;;18.90;99.90;;;;;;5056419;28;20191;-92
2023/06/28 10:40:47;;;;;;;6.03;2.13;;;19.20;99.90;;;;;;5056715;28;20172;-92
2023/06/28 10:43:23;;;;;;;4.47;2.10;;;19.10;99.90;;;;;;5055938;28;20175;-92
2023/06/28 10:45:48;;;;;;;13.17;2.57;;;19.10;1.00;;;;;;5055150;28;20706;-92
2023/06/28 10:48:19;;;;;;;6.70;1.97;;;19.00;99.90;;;;;;5054602;28;20187;-91
2023/06/28 10:50:44;;;;;;;9.10;2.60;;;19.30;99.90;;;;;;5055912;28;20183;-92
2023/06/28 10:53:25;;;;;;;6.93;2.53;;;19.70;99.90;;;;;;5055810;28;20550;-92
2023/06/28 10:56:08;;;;;;;6.13;1.87;;;19.10;99.90;;;;;;5054920;28;20645;-91
2023/06/28 10:58:42;;;;;;;10.90;2.60;;;19.20;99.90;;;;;;5055250;28;20301;-92
2023/06/28 11:01:12;;;;;;;6.43;2.40;;;19.30;99.90;;;;;;5059844;28;20171;-91
2023/06/28 11:03:43;;;;;;;6.83;2.50;;;19.40;99.90;;;;;;5064499;28;20176;-92
2023/06/28 11:06:11;;;;;;;7.17;3.00;;;19.40;99.90;;;;;;5054891;28;20176;-92
2023/06/28 11:08:43;;;;;;;7.73;2.43;;;19.50;99.90;;;;;;5054300;28;20195;-91
2023/06/28 11:11:32;;;;;;;6.83;2.73;;;19.50;99.90;;;;;;5054915;28;20167;-91
2023/06/28 11:13:57;;;;;;;7.70;2.83;;;19.60;99.90;;;;;;5045068;28;20188;-93
2023/06/28 11:16:24;;;;;;;8.60;2.70;;;19.60;99.90;;;;;;5054414;28;20584;-92
2023/06/28 11:18:51;;;;;;;7.33;2.27;;;19.70;99.90;;;;;;5056713;28;20264;-92
2023/06/28 11:21:26;;;;;;;10.53;2.27;;;20.00;99.90;;;;;;5055080;28;20178;-92
2023/06/28 11:23:54;;;;;;;7.57;2.70;;;19.80;99.90;;;;;;5058347;28;20179;-93
2023/06/28 11:26:52;;;;;;;6.47;2.40;;;19.80;99.90;;;;;;5043380;28;20598;-92
2023/06/28 11:29:19;;;;;;;7.57;2.47;;;19.80;99.90;;;;;;4993180;28;20227;-90
2023/06/28 11:31:49;;;;;;;7.13;2.57;;;20.10;99.90;;;;;;5034662;28;20307;-92
2023/06/28 11:34:15;;;;;;;5.83;2.43;;;20.00;99.90;;;;;;5035037;28;20181;-91
2023/06/28 11:36:46;;;;;;;7.53;2.30;;;19.90;99.90;;;;;;5051795;28;20210;-91
2023/06/28 11:39:22;;;;;;;10.70;2.20;;;20.20;99.90;;;;;;5055941;28;20231;-92
2023/06/28 11:41:47;;;;;;;13.70;4.00;;;19.90;99.90;;;;;;5056188;28;20584;-92
2023/06/28 11:44:14;;;;;;;4.77;2.43;;;20.00;99.90;;;;;;5055027;28;20274;-92
2023/06/28 11:46:41;;;;;;;13.47;2.70;;;20.30;99.90;;;;;;5055402;28;20553;-92
2023/06/28 11:49:07;;;;;;;8.53;2.63;;;20.10;99.90;;;;;;5060332;28;20187;-91
2023/06/28 11:51:34;;;;;;;6.17;2.10;;;20.10;99.90;;;;;;5059791;28;20633;-91
2023/06/28 11:54:01;;;;;;;10.33;2.97;;;20.20;99.90;;;;;;5059696;28;20183;-92
2023/06/28 11:56:46;;;;;;;9.43;2.63;;;20.10;99.90;;;;;;5062178;28;20186;-92
2023/06/28 11:59:16;;;;;;;8.07;2.33;;;20.30;99.90;;;;;;5060476;28;20218;-92
2023/06/28 12:01:44;;;;;;;8.00;2.80;;;20.30;99.90;;;;;;5062766;28;20207;-93
2023/06/28 12:04:13;;;;;;;7.80;2.60;;;20.50;99.90;;;;;;5059918;28;20180;-92
2023/06/28 12:06:41;;;;;;;7.77;2.77;;;20.70;99.90;;;;;;5062250;28;20657;-91
2023/06/28 12:09:17;;;;;;;5.67;2.27;;;20.40;99.90;;;;;;5059383;28;20226;-92
2023/06/28 12:11:52;;;;;;;6.40;2.57;;;20.50;99.90;;;;;;5059164;28;20183;-92
2023/06/28 12:14:18;;;;;;;10.47;3.13;;;20.70;99.90;;;;;;5058360;28;20536;-92
2023/06/28 12:16:45;;;;;;;13.50;2.87;;;20.60;99.90;;;;;;5060262;28;20657;-91
2023/06/28 12:19:14;;;;;;;6.10;2.90;;;20.70;99.90;;;;;;5058946;28;20212;-92
2023/06/28 12:21:39;;;;;;;8.07;2.97;;;21.00;99.90;;;;;;5059775;28;20258;-92
2023/06/28 12:24:13;;;;;;;8.20;3.03;;;20.70;99.90;;;;;;5058761;28;20215;-92
2023/06/28 12:26:39;;;;;;;9.60;2.40;;;20.70;99.90;;;;;;5062357;28;20168;-93
2023/06/28 12:29:07;;;;;;;6.20;2.57;;;20.90;99.90;;;;;;5061415;28;20207;-93
2023/06/28 12:31:42;;;;;;;12.00;3.23;;;21.10;99.90;;;;;;5060308;28;20180;-91
2023/06/28 12:34:07;;;;;;;7.97;2.70;;;21.00;99.90;;;;;;5043873;28;20202;-91
2023/06/28 12:36:34;;;;;;;10.70;2.87;;;21.30;99.90;;;;;;5040345;28;20193;-91
2023/06/28 12:38:59;;;;;;;10.50;3.00;;;21.30;99.90;;;;;;5047376;28;20211;-92
2023/06/28 12:41:25;;;;;;;8.80;3.10;;;21.00;99.90;;;;;;5063866;28;20164;-92
2023/06/28 12:43:57;;;;;;;5.70;2.57;;;21.10;99.90;;;;;;5061642;28;20199;-92
2023/06/28 12:46:23;;;;;;;8.83;3.17;;;21.20;99.90;;;;;;5061857;28;20183;-92
2023/06/28 12:48:52;;;;;;;6.50;2.40;;;21.30;99.90;;;;;;5061014;28;20204;-93